createdAt,value
2019-02-08T00:00:17.901Z,99.90
2019-02-08T00:05:09.301Z,99.90
2019-02-08T00:10:00.665Z,99.90
2019-02-08T00:14:52.156Z,99.90
2019-02-08T00:19:44.391Z,99.90
2019-02-08T00:24:35.054Z,99.90
2019-02-08T00:29:26.632Z,99.90
2019-02-08T00:34:20.614Z,99.90
2019-02-08T00:39:12.037Z,99.90
2019-02-08T00:44:03.572Z,99.90
2019-02-08T00:48:55.057Z,99.90
2019-02-08T00:53:46.754Z,99.90
2019-02-08T00:58:38.182Z,99.90
2019-02-08T01:03:29.605Z,99.90
2019-02-08T01:08:20.990Z,99.90
2019-02-08T01:13:12.474Z,99.90
2019-02-08T01:18:03.832Z,99.90
2019-02-08T01:22:55.225Z,99.90
2019-02-08T01:27:46.658Z,99.90
2019-02-08T01:32:38.060Z,99.90
2019-02-08T01:37:29.490Z,99.90
2019-02-08T01:42:20.821Z,99.90
2019-02-08T01:47:12.228Z,98.50
2019-02-08T01:52:03.633Z,99.40
2019-02-08T01:56:55.064Z,99.60
2019-02-08T02:01:46.476Z,99.40
2019-02-08T02:06:37.886Z,99.90
2019-02-08T02:11:29.260Z,99.90
2019-02-08T02:16:20.676Z,99.90
2019-02-08T02:21:12.079Z,99.90
2019-02-08T02:26:03.541Z,99.90
2019-02-08T02:30:54.894Z,99.90
2019-02-08T02:35:46.272Z,99.90
2019-02-08T02:40:37.674Z,99.90
2019-02-08T02:45:29.166Z,99.90
2019-02-08T02:50:20.415Z,99.90
2019-02-08T02:55:11.835Z,99.90
2019-02-08T03:00:03.244Z,99.90
2019-02-08T03:04:54.667Z,99.90
2019-02-08T03:09:46.036Z,99.90
2019-02-08T03:14:37.452Z,99.90
2019-02-08T03:19:28.898Z,99.90
2019-02-08T03:24:20.273Z,99.90
2019-02-08T03:29:11.710Z,99.90
2019-02-08T03:34:05.358Z,99.90
2019-02-08T03:38:56.789Z,99.80
2019-02-08T03:43:48.220Z,99.90
2019-02-08T03:48:39.591Z,99.90
2019-02-08T03:53:33.235Z,99.90
2019-02-08T03:58:26.886Z,99.20
2019-02-08T04:03:18.458Z,99.90
2019-02-08T04:08:09.816Z,98.90
2019-02-08T04:13:01.260Z,98.90
2019-02-08T04:17:52.699Z,98.80
2019-02-08T04:22:44.154Z,98.40
2019-02-08T04:27:35.533Z,98.30
2019-02-08T04:32:26.936Z,98.90
2019-02-08T04:37:18.295Z,99.30
2019-02-08T04:42:09.710Z,99.60
2019-02-08T04:47:01.163Z,99.00
2019-02-08T04:51:52.561Z,99.60
2019-02-08T04:56:46.200Z,98.20
2019-02-08T05:01:37.642Z,98.90
2019-02-08T05:06:29.008Z,99.60
2019-02-08T05:11:20.336Z,99.90
2019-02-08T05:16:11.815Z,99.90
2019-02-08T05:21:03.191Z,99.90
2019-02-08T05:25:56.793Z,99.90
2019-02-08T05:30:48.222Z,99.90
2019-02-08T05:35:39.589Z,99.90
2019-02-08T05:40:30.965Z,99.90
2019-02-08T05:45:22.397Z,99.90
2019-02-08T05:50:13.779Z,99.90
2019-02-08T05:55:07.367Z,99.90
2019-02-08T05:59:59.053Z,99.90
2019-02-08T06:04:50.190Z,99.90
2019-02-08T06:09:41.610Z,99.90
2019-02-08T06:14:32.988Z,99.90
2019-02-08T06:19:24.359Z,99.90
2019-02-08T06:24:15.899Z,99.90
2019-02-08T06:29:07.292Z,99.90
2019-02-08T06:34:00.905Z,99.90
2019-02-08T06:38:52.298Z,99.90
2019-02-08T06:43:43.740Z,99.90
2019-02-08T06:48:35.095Z,99.90
2019-02-08T06:53:26.511Z,99.90
2019-02-08T06:58:20.129Z,99.90
2019-02-08T07:03:11.596Z,99.90
2019-02-08T07:08:02.997Z,99.90
2019-02-08T07:12:54.358Z,99.90
2019-02-08T07:17:45.785Z,99.90
2019-02-08T07:22:37.156Z,99.90
2019-02-08T07:27:29.935Z,99.90
2019-02-08T07:32:22.119Z,99.90
2019-02-08T07:37:13.543Z,99.90
2019-02-08T07:42:04.965Z,99.90
2019-02-08T07:46:58.538Z,99.90
2019-02-08T07:51:49.969Z,99.60
2019-02-08T07:56:43.618Z,99.00
2019-02-08T08:01:35.033Z,97.80
2019-02-08T08:06:26.453Z,97.10
2019-02-08T08:11:17.754Z,95.90
2019-02-08T08:16:09.198Z,95.50
2019-02-08T08:21:00.632Z,92.80
2019-02-08T08:25:52.013Z,93.00
2019-02-08T08:30:43.347Z,92.10
2019-02-08T08:35:37.041Z,90.50
2019-02-08T08:40:28.492Z,89.70
2019-02-08T08:45:19.967Z,89.40
2019-02-08T08:50:11.317Z,88.90
2019-02-08T08:55:04.932Z,85.90
2019-02-08T08:59:56.394Z,84.50
2019-02-08T09:04:47.778Z,83.80
2019-02-08T09:09:39.204Z,83.90
2019-02-08T09:14:30.502Z,81.80
2019-02-08T09:19:21.959Z,80.30
2019-02-08T09:24:13.296Z,78.60
2019-02-08T09:29:04.673Z,76.70
2019-02-08T09:33:56.094Z,78.00
2019-02-08T09:38:47.466Z,75.30
2019-02-08T09:43:39.042Z,75.00
2019-02-08T09:48:32.465Z,73.60
2019-02-08T09:53:23.878Z,74.70
2019-02-08T09:58:15.338Z,72.60
2019-02-08T10:03:08.974Z,71.80
2019-02-08T10:08:00.452Z,70.10
2019-02-08T10:12:51.779Z,71.10
2019-02-08T10:17:43.164Z,69.70
2019-02-08T10:22:34.632Z,68.90
2019-02-08T10:27:26.023Z,70.50
2019-02-08T10:32:17.361Z,66.80
2019-02-08T10:37:10.999Z,68.10
2019-02-08T10:42:02.447Z,67.10
2019-02-08T10:46:53.819Z,63.50
2019-02-08T10:51:45.215Z,63.80
2019-02-08T10:56:38.826Z,64.10
2019-02-08T11:01:30.250Z,63.90
2019-02-08T11:06:21.643Z,59.40
2019-02-08T11:11:13.072Z,59.00
2019-02-08T11:16:04.435Z,58.70
2019-02-08T11:20:55.842Z,59.10
2019-02-08T11:25:47.209Z,53.80
2019-02-08T11:30:38.581Z,54.70
2019-02-08T11:35:29.962Z,56.30
2019-02-08T11:40:21.354Z,46.20
2019-02-08T11:45:12.783Z,46.90
2019-02-08T11:50:04.135Z,48.00
2019-02-08T11:54:55.540Z,45.60
2019-02-08T11:59:46.968Z,42.70
2019-02-08T12:04:40.572Z,41.50
2019-02-08T12:09:34.229Z,41.00
2019-02-08T12:14:25.729Z,41.50
2019-02-08T12:19:17.036Z,40.80
2019-02-08T12:24:08.467Z,39.10
2019-02-08T12:29:02.103Z,40.00
2019-02-08T12:33:53.561Z,40.20
2019-02-08T12:38:44.923Z,40.10
2019-02-08T12:43:36.386Z,37.40
2019-02-08T12:48:29.974Z,38.20
2019-02-08T12:53:21.442Z,35.60
2019-02-08T12:58:12.809Z,36.00
2019-02-08T13:03:04.245Z,33.90
2019-02-08T13:07:55.555Z,34.00
2019-02-08T13:12:47.003Z,35.50
2019-02-08T13:17:38.390Z,31.80
2019-02-08T13:22:29.728Z,30.90
2019-02-08T13:27:21.157Z,32.90
2019-02-08T13:32:14.764Z,34.50
2019-02-08T13:37:06.197Z,30.50
2019-02-08T13:41:57.580Z,30.30
2019-02-08T13:46:49.015Z,27.50
2019-02-08T13:51:42.578Z,28.50
2019-02-08T13:56:34.011Z,29.60
2019-02-08T14:01:25.383Z,28.70
2019-02-08T14:06:16.777Z,29.60
2019-02-08T14:11:08.189Z,29.30
2019-02-08T14:15:59.571Z,29.60
2019-02-08T14:20:50.937Z,29.20
2019-02-08T14:25:42.316Z,29.90
2019-02-08T14:30:33.805Z,27.00
2019-02-08T14:35:27.494Z,28.20
2019-02-08T14:40:21.049Z,29.40
2019-02-08T14:45:12.532Z,28.60
2019-02-08T14:50:03.919Z,27.60
2019-02-08T14:54:55.310Z,29.20
2019-02-08T14:59:48.931Z,28.70
2019-02-08T15:04:40.381Z,27.80
2019-02-08T15:09:31.785Z,28.50
2019-02-08T15:14:23.262Z,27.60
2019-02-08T15:19:24.680Z,29.40
2019-02-08T15:24:06.059Z,28.80
2019-02-08T15:28:57.458Z,30.30
2019-02-08T15:33:48.838Z,29.50
2019-02-08T15:38:40.271Z,29.60
2019-02-08T15:43:31.618Z,30.60
2019-02-08T15:48:25.240Z,31.00
2019-02-08T15:53:16.665Z,30.60
2019-02-08T15:58:08.108Z,31.40
2019-02-08T16:02:59.452Z,32.10
2019-02-08T16:07:50.838Z,33.20
2019-02-08T16:12:42.268Z,34.20
2019-02-08T16:17:43.706Z,34.90
2019-02-08T16:22:24.987Z,35.60
2019-02-08T16:27:18.608Z,36.30
2019-02-08T16:32:10.010Z,37.10
2019-02-08T16:37:04.177Z,37.70
2019-02-08T16:41:55.023Z,38.10
2019-02-08T16:46:46.515Z,38.70
2019-02-08T16:51:40.089Z,39.20
2019-02-08T16:56:31.571Z,39.20
2019-02-08T17:01:22.917Z,38.90
2019-02-08T17:06:16.558Z,38.40
2019-02-08T17:11:07.945Z,38.20
2019-02-08T17:15:59.582Z,37.60
2019-02-08T17:20:53.011Z,37.80
2019-02-08T17:25:44.394Z,38.30
2019-02-08T17:30:35.827Z,37.80
2019-02-08T17:35:27.245Z,37.50
2019-02-08T17:40:18.653Z,37.90
2019-02-08T17:45:12.221Z,37.60
2019-02-08T17:54:55.103Z,37.60
2019-02-08T17:59:48.828Z,37.90
2019-02-08T18:04:40.318Z,38.10
2019-02-08T18:09:31.711Z,38.90
2019-02-08T18:14:23.113Z,39.60
2019-02-08T18:19:14.503Z,40.60
2019-02-08T18:24:05.863Z,40.60
2019-02-08T18:28:57.221Z,41.00
2019-02-08T18:33:50.898Z,42.30
2019-02-08T18:38:42.374Z,41.40
2019-02-08T18:43:33.781Z,41.70
2019-02-08T18:48:25.194Z,42.90
2019-02-08T18:53:16.598Z,43.10
2019-02-08T18:58:07.987Z,42.80
2019-02-08T19:02:59.358Z,43.20
2019-02-08T19:07:53.019Z,43.00
2019-02-08T19:12:44.439Z,43.60
2019-02-08T19:17:35.911Z,42.80
2019-02-08T19:22:27.245Z,42.70
2019-02-08T19:27:18.654Z,42.00
2019-02-08T19:32:10.125Z,41.40
2019-02-08T19:37:03.336Z,41.80
2019-02-08T19:41:57.869Z,41.70
2019-02-08T19:46:44.338Z,41.40
2019-02-08T19:51:35.694Z,42.10
2019-02-08T19:56:27.148Z,42.30
2019-02-08T20:01:18.436Z,42.60
2019-02-08T20:06:09.881Z,42.70
2019-02-08T20:11:01.251Z,41.40
2019-02-08T20:15:52.643Z,40.80
2019-02-08T20:20:49.017Z,40.40
2019-02-08T20:25:35.451Z,40.20
2019-02-08T20:30:26.887Z,39.10
2019-02-08T20:35:18.199Z,39.00
2019-02-08T20:40:09.583Z,38.50
2019-02-08T20:45:01.003Z,38.20
2019-02-08T20:49:52.391Z,38.10
2019-02-08T20:54:43.779Z,37.60
2019-02-08T20:59:35.171Z,37.60
2019-02-08T21:04:26.540Z,38.10
2019-02-08T21:09:18.017Z,38.10
2019-02-08T21:14:09.387Z,38.20
2019-02-08T21:19:00.745Z,38.30
2019-02-08T21:23:52.176Z,38.70
2019-02-08T21:28:43.538Z,39.40
2019-02-08T21:33:37.154Z,38.90
2019-02-08T21:38:28.681Z,38.30
2019-02-08T21:43:19.973Z,38.60
2019-02-08T21:48:11.479Z,38.20
2019-02-08T21:53:05.000Z,37.90
2019-02-08T21:57:56.611Z,37.40
2019-02-08T22:02:47.861Z,36.80
2019-02-08T22:07:39.542Z,36.00
2019-02-08T22:12:30.615Z,35.90
2019-02-08T22:17:22.118Z,35.80
2019-02-08T22:22:13.407Z,35.80
2019-02-08T22:27:04.823Z,36.40
2019-02-08T22:31:56.193Z,36.10
2019-02-08T22:36:47.590Z,36.10
2019-02-08T22:41:38.960Z,35.80
2019-02-08T22:46:30.407Z,36.40
2019-02-08T22:51:26.302Z,36.90
2019-02-08T22:56:20.036Z,37.20
2019-02-08T23:01:11.427Z,37.90
2019-02-08T23:06:02.830Z,38.50
2019-02-08T23:10:54.263Z,38.90
2019-02-08T23:15:45.598Z,39.50
2019-02-08T23:20:37.074Z,40.10
2019-02-08T23:25:28.444Z,39.90
2019-02-08T23:30:22.036Z,40.10
2019-02-08T23:35:13.466Z,40.10
2019-02-08T23:40:07.173Z,40.20
2019-02-08T23:45:00.828Z,41.00
2019-02-08T23:49:52.259Z,41.60
2019-02-08T23:54:43.648Z,41.50
2019-02-08T23:59:38.730Z,42.70
